Time;durP1;ratioP1;P1;durP2;ratioP2;P2;SDS_P1;SDS_P2;PMS_P1;PMS_P2;Temp;Humidity;BMP_temperature;BMP_pressure;BME280_temperature;BME280_humidity;BME280_pressure;Samples;Min_cycle;Max_cycle;Signal;HPM_P1;HPM_P2
2022/03/06 00:01:19;;;;;;;;;;;24.60;63.90;;;;;;5040778;28;20026;-72
2022/03/06 00:04:25;;;;;;;11.77;3.15;;;24.60;64.00;;;;;;5049005;28;19916;-72
2022/03/06 00:07:31;;;;;;;15.85;3.60;;;24.60;64.00;;;;;;5047471;28;20116;-72
2022/03/06 00:10:37;;;;;;;11.38;4.22;;;24.70;64.10;;;;;;5048821;28;20018;-72
2022/03/06 00:13:43;;;;;;;10.85;4.00;;;24.60;64.30;;;;;;5048369;28;20038;-73
2022/03/06 00:16:29;;;;;;;;;;;24.60;64.40;;;;;;5047209;28;20083;-71
2022/03/06 00:19:35;;;;;;;7.60;3.55;;;24.60;64.60;;;;;;5048988;28;19909;-72
2022/03/06 00:22:21;;;;;;;;;;;24.60;64.80;;;;;;5049248;28;20032;-72
2022/03/06 00:25:30;;;;;;;17.48;4.18;;;24.60;64.70;;;;;;5044478;28;19915;-71
2022/03/06 00:28:37;;;;;;;11.98;4.38;;;24.60;65.00;;;;;;5048080;28;20064;-71
2022/03/06 00:31:25;;;;;;;;;;;24.50;65.00;;;;;;5049805;28;20099;-72
2022/03/06 00:34:32;;;;;;;30.98;4.93;;;24.50;65.10;;;;;;5029656;28;19923;-70
2022/03/06 00:37:38;;;;;;;10.50;3.30;;;24.40;65.30;;;;;;5046925;28;20045;-73
2022/03/06 00:40:24;;;;;;;;;;;24.40;65.50;;;;;;5051010;28;20419;-71
2022/03/06 00:43:30;;;;;;;16.58;4.32;;;24.40;65.70;;;;;;5044920;28;19909;-72
2022/03/06 00:46:36;;;;;;;11.90;3.50;;;24.50;65.70;;;;;;5044612;28;20088;-72
2022/03/06 00:49:42;;;;;;;9.52;4.22;;;24.40;65.50;;;;;;5045647;28;20097;-71
2022/03/06 00:52:48;;;;;;;11.50;4.65;;;24.40;65.80;;;;;;5049210;28;20033;-70
2022/03/06 00:55:55;;;;;;;7.47;4.18;;;24.40;65.90;;;;;;5049236;28;20116;-72
2022/03/06 00:59:01;;;;;;;13.90;4.93;;;24.40;66.00;;;;;;5046535;28;20045;-72
2022/03/06 01:02:07;;;;;;;6.40;3.95;;;24.40;65.80;;;;;;5017378;28;20427;-72
2022/03/06 01:04:52;;;;;;;;;;;24.40;65.80;;;;;;5046517;28;20036;-73
2022/03/06 01:07:59;;;;;;;5.85;2.53;;;24.30;65.50;;;;;;5047205;28;20356;-72
2022/03/06 01:11:05;;;;;;;12.07;2.45;;;24.20;65.10;;;;;;5040180;28;20129;-72
2022/03/06 01:14:11;;;;;;;9.93;2.15;;;24.20;64.60;;;;;;5044580;28;20029;-72
2022/03/06 01:16:56;;;;;;;;;;;24.20;64.20;;;;;;5044753;28;20024;-72
2022/03/06 01:20:03;;;;;;;4.50;2.38;;;24.30;64.00;;;;;;5043562;28;19931;-72
2022/03/06 01:23:09;;;;;;;4.20;2.35;;;24.30;63.60;;;;;;5045700;28;20029;-72
2022/03/06 01:26:15;;;;;;;3.30;1.40;;;24.40;63.20;;;;;;5039006;28;20032;-72
2022/03/06 01:29:22;;;;;;;7.15;1.83;;;24.40;63.10;;;;;;5040287;28;20033;-73
2022/03/06 01:32:28;;;;;;;4.78;1.27;;;24.40;63.00;;;;;;5047732;28;20036;-72
2022/03/06 01:35:14;;;;;;;;;;;24.40;62.80;;;;;;5049004;28;20033;-72
2022/03/06 01:38:20;;;;;;;5.93;1.83;;;24.50;62.70;;;;;;5042635;28;19928;-72
2022/03/06 01:41:26;;;;;;;5.20;1.77;;;24.50;62.70;;;;;;5047701;28;20025;-72
2022/03/06 01:44:12;;;;;;;;;;;24.60;62.70;;;;;;5041724;28;20049;-72
2022/03/06 01:47:18;;;;;;;7.63;2.00;;;24.60;62.70;;;;;;5044228;28;19913;-72
2022/03/06 01:50:04;;;;;;;;;;;24.60;63.00;;;;;;5050174;28;20017;-72
2022/03/06 01:53:11;;;;;;;7.38;2.20;;;24.60;63.10;;;;;;5046952;28;19904;-71
2022/03/06 01:56:17;;;;;;;5.18;1.90;;;24.60;63.40;;;;;;5052686;28;20025;-71
2022/03/06 01:59:24;;;;;;;6.90;2.03;;;24.60;63.70;;;;;;5047964;28;20025;-72
2022/03/06 02:02:09;;;;;;;;;;;24.50;63.70;;;;;;5049419;28;20024;-72
2022/03/06 02:05:15;;;;;;;8.38;3.03;;;24.50;63.90;;;;;;5048382;28;20438;-73
2022/03/06 02:08:21;;;;;;;10.45;3.03;;;24.50;64.00;;;;;;5046861;28;20024;-71
2022/03/06 02:11:27;;;;;;;7.18;2.80;;;24.50;64.20;;;;;;5050300;28;20080;-71
2022/03/06 02:14:34;;;;;;;6.15;2.45;;;24.50;64.40;;;;;;5047919;28;20045;-71
2022/03/06 02:17:19;;;;;;;;;;;24.40;64.30;;;;;;5048389;28;20021;-71
2022/03/06 02:20:38;;;;;;;6.82;2.60;;;24.40;64.00;;;;;;5048650;28;20374;-72
2022/03/06 02:23:44;;;;;;;6.28;3.10;;;24.40;64.20;;;;;;5049317;28;20117;-72
2022/03/06 02:26:50;;;;;;;6.95;3.75;;;24.40;64.20;;;;;;5045682;28;20058;-71
2022/03/06 02:29:56;;;;;;;10.15;2.88;;;24.30;64.40;;;;;;5050603;28;20430;-71
2022/03/06 02:33:05;;;;;;;7.93;2.92;;;24.30;64.60;;;;;;5049346;28;20033;-71
2022/03/06 02:36:11;;;;;;;10.13;3.67;;;24.20;64.80;;;;;;5047176;28;20079;-71
2022/03/06 02:39:17;;;;;;;12.13;4.32;;;24.20;65.30;;;;;;5047890;28;20416;-72
2022/03/06 02:42:23;;;;;;;10.02;4.22;;;24.20;65.60;;;;;;5049454;28;20094;-72
2022/03/06 02:45:09;;;;;;;;;;;24.10;65.80;;;;;;5053272;28;20086;-72
2022/03/06 02:48:17;;;;;;;12.20;3.72;;;24.10;66.00;;;;;;5045491;28;20331;-72
2022/03/06 02:51:23;;;;;;;9.32;3.20;;;24.00;66.50;;;;;;5043995;28;20017;-71
2022/03/06 02:53:49;;;;;;;8.52;2.90;;;24.00;67.10;;;;;;5048419;28;20041;-72
2022/03/06 02:56:16;;;;;;;16.42;3.78;;;23.90;67.60;;;;;;5050736;28;20826;-72
2022/03/06 02:58:42;;;;;;;14.95;4.18;;;23.90;68.10;;;;;;5051566;28;20052;-73
2022/03/06 03:01:09;;;;;;;11.13;3.85;;;23.90;68.30;;;;;;5046642;28;20104;-72
2022/03/06 03:03:39;;;;;;;29.35;7.00;;;23.80;68.70;;;;;;5048979;28;20028;-71
2022/03/06 03:06:09;;;;;;;9.20;3.17;;;23.80;69.00;;;;;;5045491;28;20025;-72
2022/03/06 03:08:35;;;;;;;11.10;3.55;;;23.70;69.30;;;;;;5049512;28;20044;-72
2022/03/06 03:11:02;;;;;;;12.18;4.22;;;23.70;69.50;;;;;;5050130;28;20384;-72
2022/03/06 03:13:28;;;;;;;20.05;4.38;;;23.60;69.90;;;;;;5029657;28;20377;-71
2022/03/06 03:15:55;;;;;;;9.27;3.22;;;23.60;70.20;;;;;;5045150;28;20017;-72
2022/03/06 03:18:21;;;;;;;14.10;4.22;;;23.60;70.50;;;;;;5042845;28;20387;-71
2022/03/06 03:20:50;;;;;;;12.80;2.97;;;23.50;70.60;;;;;;5047344;28;20527;-73
2022/03/06 03:23:16;;;;;;;12.25;3.33;;;23.50;70.90;;;;;;5047028;28;20479;-72
2022/03/06 03:25:43;;;;;;;13.02;4.07;;;23.40;71.30;;;;;;5046893;28;20032;-73
2022/03/06 03:28:10;;;;;;;15.13;3.70;;;23.40;71.60;;;;;;5049363;28;20095;-72
2022/03/06 03:30:36;;;;;;;13.77;3.80;;;23.40;71.70;;;;;;5048957;28;20147;-72
2022/03/06 03:33:02;;;;;;;10.10;3.13;;;23.30;72.00;;;;;;5049887;28;20032;-72
2022/03/06 03:35:29;;;;;;;12.43;3.70;;;23.30;72.10;;;;;;5048991;28;20115;-71
2022/03/06 03:37:55;;;;;;;15.27;4.47;;;23.30;72.30;;;;;;5048961;28;20682;-71
2022/03/06 03:40:22;;;;;;;10.70;3.42;;;23.30;72.40;;;;;;5049742;28;20025;-73
2022/03/06 03:42:49;;;;;;;10.43;3.63;;;23.20;72.80;;;;;;5046231;28;20110;-72
2022/03/06 03:45:15;;;;;;;12.95;4.13;;;23.20;73.00;;;;;;5050811;28;20020;-73
2022/03/06 03:47:42;;;;;;;9.82;3.47;;;23.10;73.40;;;;;;5047692;28;20029;-73
2022/03/06 03:50:09;;;;;;;14.02;4.30;;;23.10;73.60;;;;;;5048663;28;20037;-72
2022/03/06 03:52:36;;;;;;;16.95;5.60;;;23.10;73.90;;;;;;5043731;28;20025;-73
2022/03/06 03:55:04;;;;;;;12.32;4.18;;;23.10;73.90;;;;;;5049810;28;20021;-72
2022/03/06 03:57:30;;;;;;;10.48;3.90;;;23.00;74.20;;;;;;5048475;28;20013;-71
2022/03/06 03:59:57;;;;;;;14.55;4.65;;;23.00;74.20;;;;;;5046347;28;20491;-72
2022/03/06 04:02:23;;;;;;;12.30;3.78;;;23.00;74.40;;;;;;5046570;28;20025;-72
2022/03/06 04:04:50;;;;;;;28.88;5.68;;;23.00;75.00;;;;;;5046191;28;20029;-71
2022/03/06 04:07:17;;;;;;;12.48;3.22;;;23.00;74.40;;;;;;5049605;28;20021;-74
2022/03/06 04:09:43;;;;;;;14.95;4.63;;;23.00;75.00;;;;;;5041276;28;20754;-72
2022/03/06 04:12:10;;;;;;;17.20;4.28;;;23.00;74.90;;;;;;5047958;28;20464;-73
2022/03/06 04:14:37;;;;;;;8.63;3.53;;;22.90;75.10;;;;;;5039565;28;20036;-71
2022/03/06 04:17:03;;;;;;;13.32;4.72;;;22.90;75.10;;;;;;5049606;28;20017;-74
2022/03/06 04:19:30;;;;;;;13.40;5.35;;;23.00;75.00;;;;;;5049080;28;20082;-72
2022/03/06 04:21:57;;;;;;;14.13;4.88;;;22.90;75.10;;;;;;5049108;28;20029;-71
2022/03/06 04:24:23;;;;;;;12.38;3.85;;;22.90;75.40;;;;;;5038630;28;20026;-73
2022/03/06 04:26:50;;;;;;;15.75;4.75;;;22.90;75.50;;;;;;5047915;28;20060;-73
2022/03/06 04:29:16;;;;;;;30.52;5.85;;;22.90;75.60;;;;;;5047542;28;20471;-73
2022/03/06 04:31:43;;;;;;;19.58;4.63;;;22.90;75.70;;;;;;5048232;28;20028;-73
2022/03/06 04:34:09;;;;;;;16.05;3.92;;;22.90;75.70;;;;;;5044101;28;20087;-73
2022/03/06 04:36:36;;;;;;;13.38;4.13;;;22.90;75.60;;;;;;5050483;28;20036;-69
2022/03/06 04:39:04;;;;;;;18.52;4.65;;;22.90;75.80;;;;;;5047180;28;20055;-72
2022/03/06 04:41:31;;;;;;;24.88;9.40;;;22.80;76.10;;;;;;5044324;28;20030;-72
2022/03/06 04:43:58;;;;;;;27.02;5.35;;;22.90;76.30;;;;;;5044996;28;20048;-72
2022/03/06 04:46:24;;;;;;;16.52;4.50;;;22.90;76.10;;;;;;5042534;28;20383;-72
2022/03/06 04:48:51;;;;;;;12.98;4.25;;;22.90;76.10;;;;;;5042920;28;20025;-69
2022/03/06 04:51:18;;;;;;;17.30;4.68;;;22.90;76.40;;;;;;5043838;28;20028;-71
2022/03/06 04:53:45;;;;;;;16.73;4.15;;;22.90;76.50;;;;;;5048387;28;20048;-70
2022/03/06 04:56:11;;;;;;;10.48;4.25;;;22.90;76.40;;;;;;5041331;28;20018;-73
2022/03/06 04:58:38;;;;;;;26.23;6.25;;;22.90;76.40;;;;;;5049440;28;20029;-71
2022/03/06 05:01:05;;;;;;;19.15;5.55;;;22.90;76.50;;;;;;5040277;28;20487;-74
2022/03/06 05:03:31;;;;;;;12.93;4.93;;;22.90;76.50;;;;;;5048634;28;20387;-72
2022/03/06 05:05:58;;;;;;;17.60;6.07;;;22.90;76.40;;;;;;5045633;28;20021;-71
2022/03/06 05:08:27;;;;;;;15.77;5.10;;;22.90;76.30;;;;;;5048736;28;20078;-73
2022/03/06 05:10:55;;;;;;;12.45;4.47;;;22.90;76.50;;;;;;5049008;28;20079;-72
2022/03/06 05:13:23;;;;;;;24.08;5.18;;;22.90;76.60;;;;;;5045018;28;20032;-72
2022/03/06 05:15:50;;;;;;;56.05;8.25;;;22.90;76.90;;;;;;5048535;28;20021;-73
2022/03/06 05:18:16;;;;;;;20.08;4.93;;;22.90;77.10;;;;;;5037658;28;20048;-73
2022/03/06 05:20:44;;;;;;;17.70;7.72;;;22.90;77.20;;;;;;5047636;28;20025;-73
2022/03/06 05:23:11;;;;;;;16.45;5.60;;;22.90;77.10;;;;;;5045329;28;20037;-72
2022/03/06 05:25:37;;;;;;;12.40;5.10;;;23.00;77.00;;;;;;5049398;28;20024;-74
2022/03/06 05:28:04;;;;;;;12.93;5.20;;;23.00;77.00;;;;;;5038512;28;20056;-73
2022/03/06 05:30:31;;;;;;;12.23;4.13;;;23.00;77.20;;;;;;5045311;28;20108;-73
2022/03/06 05:32:58;;;;;;;20.38;4.68;;;23.00;77.20;;;;;;5046441;28;20029;-77
2022/03/06 05:35:24;;;;;;;17.00;4.90;;;23.00;77.30;;;;;;5049119;28;20112;-72
2022/03/06 05:37:51;;;;;;;12.77;3.92;;;23.00;77.20;;;;;;5042074;28;20089;-75
2022/03/06 05:40:17;;;;;;;16.90;5.03;;;23.00;77.30;;;;;;5046017;28;20029;-72
2022/03/06 05:42:44;;;;;;;10.30;3.33;;;23.00;77.20;;;;;;5047306;28;20106;-70
2022/03/06 05:45:10;;;;;;;15.48;4.80;;;23.00;77.20;;;;;;5048629;28;20024;-74
2022/03/06 05:47:37;;;;;;;20.02;4.88;;;23.10;77.30;;;;;;5047094;28;20067;-74
2022/03/06 05:50:10;;;;;;;21.35;7.65;;;23.10;77.10;;;;;;5040896;28;20021;-74
2022/03/06 05:52:37;;;;;;;18.05;5.82;;;23.10;76.70;;;;;;5044853;28;20116;-73
2022/03/06 05:55:04;;;;;;;10.43;3.80;;;23.10;76.40;;;;;;5037913;28;20439;-71
2022/03/06 05:57:44;;;;;;;14.85;4.05;;;23.10;75.70;;;;;;5031253;28;20037;-74
2022/03/06 06:00:18;;;;;;;10.27;3.83;;;23.20;75.70;;;;;;5044283;28;20025;-74
2022/03/06 06:03:17;;;;;;;;;;;;;;;;;;;;;
2022/03/06 06:05:44;;;;;;;11.00;4.35;;;23.20;74.70;;;;;;5031924;28;20399;-74
2022/03/06 06:08:11;;;;;;;7.63;3.08;;;23.20;74.40;;;;;;5045419;28;20025;-73
2022/03/06 06:10:37;;;;;;;12.05;4.68;;;23.30;74.20;;;;;;5046954;28;20031;-75
2022/03/06 06:13:04;;;;;;;11.75;3.05;;;23.30;74.20;;;;;;5046026;28;20037;-74
2022/03/06 06:15:30;;;;;;;11.75;4.55;;;23.30;74.60;;;;;;5049705;28;20094;-74
2022/03/06 06:17:57;;;;;;;13.35;4.38;;;23.30;74.00;;;;;;5044534;28;20033;-73
2022/03/06 06:20:24;;;;;;;13.90;4.90;;;23.40;74.00;;;;;;5046352;28;20498;-73
2022/03/06 06:22:53;;;;;;;14.98;4.57;;;23.40;73.90;;;;;;5030017;28;20497;-77
2022/03/06 06:25:19;;;;;;;13.48;4.00;;;23.50;73.70;;;;;;5049485;28;20025;-73
2022/03/06 06:27:48;;;;;;;9.90;4.05;;;23.50;73.40;;;;;;5046700;28;20418;-72
2022/03/06 06:30:15;;;;;;;10.30;3.15;;;23.50;73.30;;;;;;5040690;28;20502;-77
2022/03/06 06:32:41;;;;;;;14.68;4.32;;;23.60;73.30;;;;;;5044272;28;20079;-74
2022/03/06 06:35:08;;;;;;;9.48;4.32;;;23.60;73.30;;;;;;5047734;28;20117;-76
2022/03/06 06:37:34;;;;;;;7.95;3.38;;;23.60;73.20;;;;;;5050997;28;20044;-75
2022/03/06 06:40:01;;;;;;;10.48;3.97;;;23.70;73.10;;;;;;5051087;28;20049;-73
2022/03/06 06:42:27;;;;;;;11.07;3.70;;;23.70;73.00;;;;;;5050727;28;20113;-74
2022/03/06 06:45:06;;;;;;;13.32;3.95;;;23.80;73.00;;;;;;5048821;28;20040;-72
2022/03/06 06:47:33;;;;;;;7.20;3.05;;;23.90;72.80;;;;;;5048889;28;20029;-72
2022/03/06 06:49:59;;;;;;;5.63;3.53;;;23.90;72.60;;;;;;5045038;28;20021;-72
2022/03/06 06:52:29;;;;;;;10.80;4.22;;;24.00;72.50;;;;;;5049745;28;20017;-72
2022/03/06 06:55:27;;;;;;;9.50;3.60;;;24.00;72.30;;;;;;5046986;28;20440;-72
2022/03/06 06:57:58;;;;;;;10.32;4.30;;;24.10;72.20;;;;;;5043589;28;20033;-72
2022/03/06 07:00:24;;;;;;;10.43;3.58;;;24.20;72.00;;;;;;5032808;28;20083;-73
2022/03/06 07:06:28;;;;;;;;;;;;;;;;;;;;;
2022/03/06 07:09:36;;;;;;;11.85;3.40;;;24.40;70.80;;;;;;5040452;28;20033;-71
2022/03/06 07:12:03;;;;;;;6.70;3.75;;;24.60;70.60;;;;;;5046864;28;20035;-71
2022/03/06 07:14:30;;;;;;;12.23;3.88;;;24.70;70.40;;;;;;5045781;28;20033;-72
2022/03/06 07:16:57;;;;;;;13.13;4.53;;;24.80;69.90;;;;;;5042788;28;20026;-72
2022/03/06 07:19:23;;;;;;;10.13;3.90;;;24.90;69.80;;;;;;5049556;28;20021;-72
2022/03/06 07:21:50;;;;;;;14.38;3.90;;;24.90;69.10;;;;;;5049987;28;20029;-72
2022/03/06 07:24:16;;;;;;;12.00;5.07;;;25.00;68.20;;;;;;5043221;28;20499;-72
2022/03/06 07:26:43;;;;;;;11.07;4.55;;;25.20;67.80;;;;;;5048664;28;20032;-72
2022/03/06 07:29:09;;;;;;;8.18;4.50;;;25.20;66.90;;;;;;5048715;28;20017;-73
2022/03/06 07:31:36;;;;;;;10.88;5.35;;;25.40;66.00;;;;;;5048640;28;20039;-73
2022/03/06 07:34:03;;;;;;;9.38;3.90;;;25.50;64.50;;;;;;5046337;28;20087;-72
2022/03/06 07:36:29;;;;;;;8.20;4.57;;;25.50;64.30;;;;;;5050841;28;20028;-73
2022/03/06 07:38:56;;;;;;;11.63;5.32;;;25.70;63.50;;;;;;5047107;28;20527;-72
2022/03/06 07:41:23;;;;;;;15.00;5.32;;;25.80;62.50;;;;;;5048317;28;20021;-72
2022/03/06 07:43:49;;;;;;;15.43;5.13;;;25.90;62.20;;;;;;5050722;28;20028;-71
2022/03/06 07:46:16;;;;;;;8.88;4.38;;;26.00;61.00;;;;;;5050218;28;20036;-73
2022/03/06 07:48:42;;;;;;;19.63;5.15;;;26.20;60.60;;;;;;5047782;28;20053;-73
2022/03/06 07:51:09;;;;;;;17.00;5.00;;;26.30;60.40;;;;;;5045792;28;20032;-72
2022/03/06 07:53:35;;;;;;;12.45;4.90;;;26.40;60.00;;;;;;5043788;28;20025;-72
2022/03/06 07:56:04;;;;;;;9.45;4.35;;;26.60;59.80;;;;;;5046743;28;20086;-71
2022/03/06 07:58:31;;;;;;;12.65;4.60;;;26.80;59.70;;;;;;5048442;28;20068;-72
2022/03/06 08:00:57;;;;;;;16.05;4.38;;;26.90;58.60;;;;;;5038936;28;20039;-72
2022/03/06 08:03:42;;;;;;;10.93;3.90;;;27.10;57.90;;;;;;5047943;28;20375;-72
2022/03/06 08:06:08;;;;;;;11.90;3.67;;;27.20;57.80;;;;;;5049291;28;20043;-73
2022/03/06 08:08:43;;;;;;;15.02;3.35;;;27.40;56.70;;;;;;5049316;28;20032;-73
2022/03/06 08:11:09;;;;;;;;;;;27.60;55.80;;;;;;5047922;28;20460;-72
2022/03/06 08:13:42;;;;;;;6.28;2.40;;;27.80;55.60;;;;;;5044625;28;19951;-71
2022/03/06 08:16:23;;;;;;;8.13;3.25;;;27.90;54.60;;;;;;5044976;28;20472;-72
2022/03/06 08:18:53;;;;;;;6.55;3.53;;;28.00;54.10;;;;;;5045676;28;20027;-72
2022/03/06 08:21:19;;;;;;;13.00;5.18;;;28.20;53.70;;;;;;5051088;28;20024;-71
2022/03/06 08:23:46;;;;;;;10.45;3.90;;;28.20;57.50;;;;;;5048525;28;20074;-73
2022/03/06 08:26:12;;;;;;;11.38;4.80;;;28.20;58.20;;;;;;5049665;28;20025;-73
2022/03/06 08:28:39;;;;;;;13.57;4.25;;;28.10;57.70;;;;;;5048047;28;20036;-72
2022/03/06 08:31:05;;;;;;;8.65;3.72;;;27.90;56.60;;;;;;5045873;28;20116;-72
2022/03/06 08:33:32;;;;;;;12.50;2.78;;;27.60;56.30;;;;;;5042554;28;20122;-72
2022/03/06 08:35:58;;;;;;;15.18;3.22;;;27.30;56.50;;;;;;5046796;28;20108;-71
2022/03/06 08:38:24;;;;;;;12.15;3.38;;;27.10;56.90;;;;;;5046781;28;20045;-71
2022/03/06 08:40:51;;;;;;;12.40;3.78;;;26.90;57.20;;;;;;5046959;28;20029;-71
2022/03/06 08:43:18;;;;;;;13.27;3.15;;;26.80;57.30;;;;;;5049429;28;20082;-71
2022/03/06 08:45:44;;;;;;;8.65;3.35;;;26.80;57.80;;;;;;5043814;28;20530;-72
2022/03/06 08:48:11;;;;;;;12.20;3.95;;;26.70;57.80;;;;;;5047222;28;20035;-71
2022/03/06 08:50:37;;;;;;;7.95;3.55;;;26.70;57.30;;;;;;5047109;28;20383;-71
2022/03/06 08:53:04;;;;;;;12.07;4.20;;;26.70;57.50;;;;;;5050127;28;20805;-71
2022/03/06 08:55:30;;;;;;;10.07;3.45;;;26.60;57.60;;;;;;5046529;28;20021;-72
2022/03/06 08:57:57;;;;;;;10.48;2.90;;;26.60;57.40;;;;;;5045060;28;20513;-71
2022/03/06 09:00:23;;;;;;;7.15;2.67;;;26.70;57.60;;;;;;5024613;28;20361;-70
2022/03/06 09:02:50;;;;;;;10.23;3.42;;;26.70;57.20;;;;;;5045041;28;20387;-72
2022/03/06 09:05:20;;;;;;;13.38;3.85;;;26.80;57.30;;;;;;5046273;28;20029;-72
2022/03/06 09:07:47;;;;;;;9.93;3.63;;;26.90;57.00;;;;;;5046469;28;20036;-72
2022/03/06 09:10:16;;;;;;;6.05;3.03;;;27.00;56.80;;;;;;5047295;28;20033;-71
2022/03/06 09:12:43;;;;;;;7.30;2.50;;;27.10;56.00;;;;;;5038927;28;20060;-73
2022/03/06 09:15:10;;;;;;;7.55;2.40;;;27.20;55.70;;;;;;5044324;28;20035;-71
2022/03/06 09:17:38;;;;;;;9.38;2.45;;;27.30;55.10;;;;;;5048356;28;20391;-72
2022/03/06 09:20:06;;;;;;;5.63;2.10;;;27.40;55.00;;;;;;5046477;28;20021;-72
2022/03/06 09:22:33;;;;;;;8.10;2.38;;;27.50;54.60;;;;;;5046387;28;20378;-71
2022/03/06 09:24:59;;;;;;;9.13;2.33;;;27.70;54.30;;;;;;5048967;28;20031;-71
2022/03/06 09:27:26;;;;;;;7.38;1.90;;;27.80;53.70;;;;;;5042566;28;20480;-70
2022/03/06 09:29:52;;;;;;;7.07;2.35;;;27.90;53.70;;;;;;5045509;28;20025;-72
2022/03/06 09:32:19;;;;;;;5.13;2.30;;;28.10;53.40;;;;;;5048845;28;20064;-71
2022/03/06 09:34:45;;;;;;;7.38;2.35;;;28.20;52.90;;;;;;5045359;28;20681;-70
2022/03/06 09:37:11;;;;;;;7.38;2.08;;;28.40;52.90;;;;;;5046036;28;20033;-71
2022/03/06 09:39:38;;;;;;;4.88;2.65;;;28.50;51.70;;;;;;5043054;28;20112;-71
2022/03/06 09:42:05;;;;;;;5.43;1.95;;;28.70;51.50;;;;;;5048941;28;20067;-72
2022/03/06 09:44:32;;;;;;;5.82;2.08;;;28.90;51.00;;;;;;5045836;28;20029;-72
2022/03/06 09:46:59;;;;;;;5.80;2.67;;;29.10;50.70;;;;;;5045886;28;20021;-72
2022/03/06 09:49:26;;;;;;;3.85;2.22;;;29.20;50.20;;;;;;5048750;28;20021;-72
2022/03/06 09:51:54;;;;;;;6.20;3.10;;;29.40;48.40;;;;;;5048767;28;20028;-71
2022/03/06 09:54:21;;;;;;;3.60;2.70;;;29.60;46.80;;;;;;5029923;28;20051;-72
2022/03/06 09:56:50;;;;;;;6.22;1.92;;;29.70;46.10;;;;;;5045939;28;20017;-72
2022/03/06 09:59:17;;;;;;;6.63;1.50;;;29.80;45.60;;;;;;5042532;28;20025;-73
2022/03/06 10:01:56;;;;;;;2.00;1.20;;;29.90;45.10;;;;;;5048500;28;20059;-73
2022/03/06 10:04:29;;;;;;;5.35;2.00;;;30.00;46.00;;;;;;5042987;28;20040;-72
2022/03/06 10:07:16;;;;;;;8.10;1.92;;;30.00;44.80;;;;;;5046081;28;20028;-73
2022/03/06 10:09:54;;;;;;;4.45;1.20;;;30.10;44.40;;;;;;5050438;28;20040;-73
2022/03/06 10:12:32;;;;;;;4.97;1.65;;;30.10;44.10;;;;;;5043809;28;20037;-72
2022/03/06 10:15:17;;;;;;;6.43;2.25;;;30.20;44.50;;;;;;5050368;28;20040;-72
2022/03/06 10:18:05;;;;;;;;;;;30.30;44.80;;;;;;5044319;28;20040;-73
2022/03/06 10:20:31;;;;;;;4.13;1.23;;;30.30;45.30;;;;;;5048271;28;20363;-72
2022/03/06 10:22:58;;;;;;;10.15;1.55;;;30.40;44.30;;;;;;5046768;28;20029;-72
2022/03/06 10:25:26;;;;;;;16.67;3.97;;;30.40;44.00;;;;;;5047244;28;20025;-72
2022/03/06 10:27:57;;;;;;;7.40;1.70;;;30.40;43.30;;;;;;5051070;28;20021;-72
2022/03/06 10:30:26;;;;;;;7.43;1.95;;;30.50;43.70;;;;;;5047351;28;20032;-71
2022/03/06 10:32:56;;;;;;;3.67;1.55;;;30.60;43.80;;;;;;5046945;28;20051;-72
2022/03/06 10:35:43;;;;;;;4.97;1.80;;;30.70;43.70;;;;;;5050300;28;20021;-72
2022/03/06 10:38:32;;;;;;;11.25;4.60;;;30.90;45.00;;;;;;5051419;28;20037;-71
2022/03/06 10:41:17;;;;;;;13.73;4.78;;;31.10;48.20;;;;;;5049216;28;20029;-71
2022/03/06 10:43:58;;;;;;;12.32;3.97;;;31.20;50.10;;;;;;5047570;28;20063;-72
2022/03/06 10:46:27;;;;;;;10.23;3.58;;;31.30;50.40;;;;;;5046483;28;20033;-75
2022/03/06 10:49:18;;;;;;;8.35;3.33;;;31.40;50.80;;;;;;5046471;28;20111;-71
2022/03/06 10:51:47;;;;;;;10.43;3.47;;;31.40;50.80;;;;;;5048101;28;20120;-72
2022/03/06 10:54:15;;;;;;;8.95;2.88;;;31.40;50.90;;;;;;5048645;28;20045;-71
2022/03/06 10:56:50;;;;;;;10.40;3.83;;;31.40;50.90;;;;;;5049750;28;20484;-72
2022/03/06 10:59:25;;;;;;;7.10;4.30;;;31.50;51.10;;;;;;5045351;28;20032;-72
2022/03/06 11:01:51;;;;;;;;;;;31.50;51.10;;;;;;5047847;28;20079;-71
2022/03/06 11:04:37;;;;;;;11.93;3.70;;;31.50;51.10;;;;;;5050852;28;19915;-72
2022/03/06 11:07:07;;;;;;;10.35;4.30;;;31.50;50.90;;;;;;5043061;28;20094;-71
2022/03/06 11:09:33;;;;;;;9.07;3.58;;;31.50;51.00;;;;;;5047486;28;20526;-71
2022/03/06 11:12:09;;;;;;;6.65;3.20;;;31.50;51.00;;;;;;5049182;28;20067;-71
2022/03/06 11:14:36;;;;;;;12.07;4.30;;;31.50;51.10;;;;;;5047735;28;20127;-73
2022/03/06 11:17:02;;;;;;;12.55;4.03;;;31.50;51.20;;;;;;5044709;28;20555;-73
2022/03/06 11:19:32;;;;;;;11.30;4.07;;;31.50;51.30;;;;;;5048649;28;20029;-73
2022/03/06 11:22:14;;;;;;;11.27;3.72;;;31.60;51.30;;;;;;5045257;28;20017;-74
2022/03/06 11:24:47;;;;;;;19.00;11.60;;;31.50;51.30;;;;;;5049442;28;20100;-72
2022/03/06 11:27:26;;;;;;;20.40;12.43;;;31.50;51.50;;;;;;5045661;28;20032;-72
2022/03/06 11:30:05;;;;;;;11.65;6.00;;;31.50;52.30;;;;;;5045890;28;20021;-73
2022/03/06 11:32:36;;;;;;;13.57;5.10;;;31.50;52.40;;;;;;5049731;28;20123;-74
2022/03/06 11:35:09;;;;;;;10.45;5.57;;;31.40;52.50;;;;;;5048302;28;20029;-73
2022/03/06 11:37:48;;;;;;;10.90;5.10;;;31.40;52.20;;;;;;5049092;28;20045;-76
2022/03/06 11:40:34;;;;;;;10.32;5.00;;;31.30;52.70;;;;;;5047046;28;20372;-73
2022/03/06 11:43:01;;;;;;;8.75;3.53;;;31.30;53.10;;;;;;5050048;28;20376;-76
2022/03/06 11:45:53;;;;;;;9.82;3.95;;;31.30;53.30;;;;;;5048859;28;20075;-72
2022/03/06 11:48:35;;;;;;;43.00;9.32;;;31.30;54.00;;;;;;5048044;28;20107;-72
2022/03/06 11:51:22;;;;;;;37.97;9.13;;;31.20;54.60;;;;;;5049636;28;20062;-74
2022/03/06 11:53:57;;;;;;;19.38;6.15;;;31.20;55.10;;;;;;5049110;28;20029;-74
2022/03/06 11:56:33;;;;;;;21.95;6.80;;;31.00;55.10;;;;;;5045569;28;20044;-75
2022/03/06 11:59:05;;;;;;;24.02;6.68;;;31.00;55.40;;;;;;5037886;28;20013;-72
2022/03/06 12:01:37;;;;;;;31.05;6.00;;;30.90;56.10;;;;;;5045396;28;20547;-72
2022/03/06 12:04:10;;;;;;;16.10;4.80;;;30.90;56.30;;;;;;5043194;28;20076;-73
2022/03/06 12:06:58;;;;;;;10.73;3.28;;;30.80;56.50;;;;;;5047145;28;20053;-70
2022/03/06 12:09:30;;;;;;;8.55;3.60;;;30.70;56.40;;;;;;5047735;28;20021;-70
2022/03/06 12:12:07;;;;;;;10.85;3.95;;;30.70;56.60;;;;;;5045259;28;20029;-72
2022/03/06 12:14:45;;;;;;;9.68;4.00;;;30.70;56.80;;;;;;5047071;28;20037;-73
2022/03/06 12:17:11;;;;;;;12.90;4.50;;;30.60;57.20;;;;;;5047824;28;20427;-74
2022/03/06 12:19:43;;;;;;;15.02;3.58;;;30.60;57.50;;;;;;5043678;28;20477;-73
2022/03/06 12:22:33;;;;;;;9.50;4.03;;;30.60;57.60;;;;;;5048796;28;20025;-74
2022/03/06 12:25:09;;;;;;;16.40;4.38;;;30.60;57.90;;;;;;5029896;28;20041;-74
2022/03/06 12:27:38;;;;;;;9.13;4.93;;;30.50;57.90;;;;;;5044693;28;20036;-75
2022/03/06 12:30:11;;;;;;;7.38;4.68;;;30.50;57.90;;;;;;5039065;28;20040;-74
2022/03/06 12:32:40;;;;;;;11.53;4.93;;;30.50;58.00;;;;;;5046887;28;20029;-75
2022/03/06 12:35:10;;;;;;;8.02;4.22;;;30.60;57.90;;;;;;5043878;28;20106;-76
2022/03/06 12:37:39;;;;;;;58.83;7.55;;;30.60;57.80;;;;;;5045940;28;20033;-76
2022/03/06 12:40:20;;;;;;;29.42;7.53;;;30.60;57.70;;;;;;5048039;28;20032;-75
2022/03/06 12:43:01;;;;;;;17.52;5.78;;;30.50;58.00;;;;;;5043061;28;20602;-74
2022/03/06 12:45:28;;;;;;;19.65;5.45;;;30.50;58.30;;;;;;5046731;28;20025;-76
2022/03/06 12:47:55;;;;;;;11.32;4.40;;;30.50;58.90;;;;;;5043488;28;20531;-76
2022/03/06 12:50:24;;;;;;;10.48;3.78;;;30.50;58.20;;;;;;5046445;28;20059;-76
2022/03/06 12:52:58;;;;;;;15.15;9.65;;;30.50;58.20;;;;;;5045918;28;20029;-77
2022/03/06 12:55:25;;;;;;;11.90;6.28;;;30.50;58.50;;;;;;5046159;28;20029;-75
2022/03/06 12:57:58;;;;;;;14.55;6.60;;;30.50;58.60;;;;;;5043040;28;20017;-74
2022/03/06 13:00:31;;;;;;;10.60;5.30;;;30.50;58.70;;;;;;5030527;28;20029;-76
2022/03/06 13:02:59;;;;;;;11.55;3.65;;;30.50;58.70;;;;;;5047581;28;20029;-76
2022/03/06 13:05:26;;;;;;;8.30;3.80;;;30.50;58.60;;;;;;5044508;28;20075;-76
2022/03/06 13:07:54;;;;;;;7.88;3.45;;;30.50;58.60;;;;;;5044981;28;20443;-76
2022/03/06 13:10:22;;;;;;;9.68;3.42;;;30.50;58.70;;;;;;5046254;28;20024;-76
2022/03/06 13:12:53;;;;;;;29.33;3.75;;;30.40;58.70;;;;;;5045257;28;20021;-77
2022/03/06 13:15:22;;;;;;;21.33;4.43;;;30.40;58.80;;;;;;5042758;28;20020;-73
2022/03/06 13:17:55;;;;;;;8.75;4.03;;;30.40;59.00;;;;;;5046595;28;20656;-77
2022/03/06 13:20:29;;;;;;;9.83;3.23;;;30.40;59.10;;;;;;5043816;28;20120;-77
2022/03/06 13:22:56;;;;;;;19.85;4.72;;;30.40;59.20;;;;;;5044691;28;20021;-78
2022/03/06 13:25:27;;;;;;;25.90;3.80;;;30.40;59.20;;;;;;5046574;28;20025;-76
2022/03/06 13:27:54;;;;;;;13.88;4.00;;;30.50;59.20;;;;;;5047940;28;20487;-75
2022/03/06 13:30:38;;;;;;;12.27;3.80;;;30.50;59.20;;;;;;5040435;28;20115;-73
2022/03/06 13:33:07;;;;;;;10.95;3.80;;;30.50;59.20;;;;;;5048507;28;20051;-73
2022/03/06 13:35:42;;;;;;;6.07;3.88;;;30.40;59.20;;;;;;5045496;28;20033;-77